Aviation Digital Data Service (ADDS)

Output produced by METARs form (0210 UTC 21 October 2014)
found at http://aviationweather.gov/adds/metars/
 
METAR text: KSPB 210153Z AUTO 00000KT 10SM FEW065 SCT095 14/12 A2980 RMK AO2 RAE38 SLP090 P0000 T01390122
Conditions at: KSPB (SCAPPOOSE , OR, US) observed 0153 UTC 21 October 2014
Temperature: 13.9°C (57°F)
Dewpoint: 12.2°C (54°F) [RH = 89%]
Pressure (altimeter): 29.80 inches Hg (1009.2 mb)
[Sea-level pressure: 1009.0 mb]
Winds: calm
Visibility: 10 or more miles (16+ km)
Ceiling: at least 12,000 feet AGL
Clouds: few clouds at 6500 feet AGL
scattered clouds at 9500 feet AGL
Weather: automated observation with no human augmentation;
there may or may not be significant weather present at this time

METAR text: KSPB 210055Z AUTO 12006KT 5SM -RA BR SCT018 BKN031 OVC050 14/12 A2979 RMK AO2 P0000 T01440122
Conditions at: KSPB (SCAPPOOSE , OR, US) observed 0055 UTC 21 October 2014
Temperature: 14.4°C (58°F)
Dewpoint: 12.2°C (54°F) [RH = 87%]
Pressure (altimeter): 29.79 inches Hg (1008.9 mb)
Winds: from the ESE (120 degrees) at 7 MPH (6 knots; 3.1 m/s)
Visibility: 5 miles (8 km)
Ceiling: 3100 feet AGL
Clouds: scattered clouds at 1800 feet AGL
broken clouds at 3100 feet AGL
overcast cloud deck at 5000 feet AGL
Weather: -RA BR  (light rain, mist)

METAR text: KSPB 210053Z AUTO 09007KT 2 1/2SM -RA FEW015 BKN028 OVC050 14/12 A2979 RMK AO2 RAB38 SLP088 P0006 T01440117
Conditions at: KSPB (SCAPPOOSE , OR, US) observed 0053 UTC 21 October 2014
Temperature: 14.4°C (58°F)
Dewpoint: 11.7°C (53°F) [RH = 84%]
Pressure (altimeter): 29.79 inches Hg (1008.9 mb)
[Sea-level pressure: 1008.8 mb]
Winds: from the E (90 degrees) at 8 MPH (7 knots; 3.6 m/s)
Visibility: 2.50 miles (4.02 km)
Ceiling: 2800 feet AGL
Clouds: few clouds at 1500 feet AGL
broken clouds at 2800 feet AGL
overcast cloud deck at 5000 feet AGL
Weather: -RA  (light rain)

METAR text: KSPB 210051Z AUTO 09003KT 2SM -RA FEW014 BKN030 OVC050 14/12 A2979 RMK AO2 RAB38 P0006
Conditions at: KSPB (SCAPPOOSE , OR, US) observed 0051 UTC 21 October 2014
Temperature: 14.0°C (57°F)
Dewpoint: 12.0°C (54°F) [RH = 88%]
Pressure (altimeter): 29.79 inches Hg (1008.9 mb)
Winds: from the E (90 degrees) at 3 MPH (3 knots; 1.6 m/s)
Visibility: 2.00 miles (3.22 km)
Ceiling: 3000 feet AGL
Clouds: few clouds at 1400 feet AGL
broken clouds at 3000 feet AGL
overcast cloud deck at 5000 feet AGL
Weather: -RA  (light rain)